createdAt,value
2023-03-03T00:01:50.702Z,9.75
2023-03-03T00:04:17.028Z,9.72
2023-03-03T00:06:43.383Z,9.68
2023-03-03T00:09:09.727Z,9.64
2023-03-03T00:11:36.026Z,9.59
2023-03-03T00:14:02.404Z,9.53
2023-03-03T00:16:28.860Z,9.49
2023-03-03T00:18:55.211Z,9.45
2023-03-03T00:21:21.586Z,9.41
2023-03-03T00:23:47.903Z,9.36
2023-03-03T00:26:14.267Z,9.32
2023-03-03T00:28:41.495Z,9.26
2023-03-03T00:31:07.888Z,9.25
2023-03-03T00:33:34.244Z,9.17
2023-03-03T00:36:00.664Z,9.12
2023-03-03T00:38:27.037Z,9.08
2023-03-03T00:40:53.375Z,9.06
2023-03-03T00:43:20.289Z,9.00
2023-03-03T00:45:46.630Z,8.98
2023-03-03T00:48:12.996Z,8.93
2023-03-03T00:50:39.341Z,8.90
2023-03-03T00:53:05.664Z,8.85
2023-03-03T00:55:32.034Z,8.83
2023-03-03T00:57:58.421Z,8.80
2023-03-03T01:00:29.768Z,8.78
2023-03-03T01:02:56.916Z,8.76
2023-03-03T01:05:23.757Z,8.74
2023-03-03T01:07:50.122Z,8.72
2023-03-03T01:10:17.889Z,8.71
2023-03-03T01:12:44.266Z,8.46
2023-03-03T01:15:10.628Z,8.53
2023-03-03T01:17:36.926Z,8.34
2023-03-03T01:20:03.366Z,8.38
2023-03-03T01:22:29.688Z,8.40
2023-03-03T01:24:57.601Z,8.38
2023-03-03T01:27:24.443Z,8.40
2023-03-03T01:29:50.853Z,8.36
2023-03-03T01:32:17.530Z,8.34
2023-03-03T01:34:43.991Z,8.29
2023-03-03T01:37:10.309Z,8.26
2023-03-03T01:39:36.661Z,8.23
2023-03-03T01:42:03.026Z,8.20
2023-03-03T01:44:29.374Z,8.16
2023-03-03T01:46:55.773Z,8.12
2023-03-03T01:49:22.213Z,8.08
2023-03-03T01:51:48.546Z,8.04
2023-03-03T01:54:14.899Z,7.98
2023-03-03T01:56:41.265Z,7.97
2023-03-03T01:59:07.691Z,7.92
2023-03-03T02:01:34.282Z,7.89
2023-03-03T02:04:01.235Z,7.85
2023-03-03T02:06:27.644Z,7.82
2023-03-03T02:08:53.975Z,7.78
2023-03-03T02:11:20.353Z,7.73
2023-03-03T02:13:46.688Z,7.68
2023-03-03T02:16:13.057Z,7.66
2023-03-03T02:18:39.463Z,7.62
2023-03-03T02:21:05.798Z,7.58
2023-03-03T02:23:32.123Z,7.55
2023-03-03T02:25:59.368Z,7.51
2023-03-03T02:28:28.963Z,7.49
2023-03-03T02:30:55.341Z,7.50
2023-03-03T02:33:21.808Z,7.47
2023-03-03T02:35:48.151Z,7.44
2023-03-03T02:38:14.501Z,7.43
2023-03-03T02:40:40.871Z,7.38
2023-03-03T02:43:07.200Z,7.33
2023-03-03T02:45:33.650Z,7.27
2023-03-03T02:48:00.129Z,7.26
2023-03-03T02:50:26.451Z,7.22
2023-03-03T02:52:52.782Z,7.19
2023-03-03T02:55:19.224Z,7.13
2023-03-03T02:57:45.543Z,7.09
2023-03-03T03:00:11.862Z,7.07
2023-03-03T03:02:38.361Z,7.03
2023-03-03T03:05:05.516Z,7.04
2023-03-03T03:07:31.880Z,7.15
2023-03-03T03:09:58.306Z,7.33
2023-03-03T03:12:26.097Z,7.58
2023-03-03T03:14:54.476Z,7.87
2023-03-03T03:17:20.848Z,8.17
2023-03-03T03:19:48.944Z,8.48
2023-03-03T03:22:15.576Z,8.78
2023-03-03T03:24:42.327Z,9.09
2023-03-03T03:27:08.917Z,9.40
2023-03-03T03:29:35.436Z,9.68
2023-03-03T03:32:02.044Z,9.97
2023-03-03T03:34:28.478Z,10.26
2023-03-03T03:36:55.828Z,10.53
2023-03-03T03:39:24.013Z,10.81
2023-03-03T03:41:51.537Z,11.09
2023-03-03T03:44:17.844Z,11.39
2023-03-03T03:46:44.242Z,11.65
2023-03-03T03:49:10.937Z,11.93
2023-03-03T03:51:37.294Z,12.19
2023-03-03T03:54:04.253Z,12.46
2023-03-03T03:56:32.061Z,12.70
2023-03-03T03:59:00.446Z,12.95
2023-03-03T04:01:26.849Z,13.18
2023-03-03T04:03:53.483Z,13.40
2023-03-03T04:06:22.946Z,13.62
2023-03-03T04:08:49.739Z,13.80
2023-03-03T04:11:18.542Z,14.02
2023-03-03T04:13:45.061Z,14.08
2023-03-03T04:16:12.173Z,14.48
2023-03-03T04:18:40.713Z,14.67
2023-03-03T04:21:07.078Z,14.89
2023-03-03T04:23:33.727Z,15.09
2023-03-03T04:26:01.632Z,15.27
2023-03-03T04:28:28.311Z,15.44
2023-03-03T04:30:55.184Z,15.63
2023-03-03T04:33:22.937Z,15.84
2023-03-03T04:35:49.431Z,16.01
2023-03-03T04:38:15.959Z,16.19
2023-03-03T04:40:42.936Z,16.37
2023-03-03T04:43:11.164Z,16.55
2023-03-03T04:45:37.691Z,16.73
2023-03-03T04:48:04.669Z,16.90
2023-03-03T04:50:31.484Z,17.05
2023-03-03T04:52:58.092Z,17.23
2023-03-03T04:55:24.466Z,17.39
2023-03-03T04:57:51.353Z,17.54
2023-03-03T05:00:20.520Z,17.69
2023-03-03T05:02:47.020Z,17.87
2023-03-03T05:05:13.475Z,18.04
2023-03-03T05:07:40.023Z,18.28
2023-03-03T05:10:06.498Z,18.46
2023-03-03T05:12:32.882Z,18.57
2023-03-03T05:14:59.455Z,18.83
2023-03-03T05:17:25.899Z,19.04
2023-03-03T05:19:52.344Z,19.20
2023-03-03T05:22:18.747Z,19.39
2023-03-03T05:24:45.106Z,19.61
2023-03-03T05:27:11.530Z,19.80
2023-03-03T05:29:37.951Z,20.03
2023-03-03T05:32:04.351Z,20.22
2023-03-03T05:34:30.866Z,20.43
2023-03-03T05:36:57.244Z,20.64
2023-03-03T05:39:23.611Z,20.87
2023-03-03T05:41:49.990Z,21.04
2023-03-03T05:44:16.404Z,21.20
2023-03-03T05:46:42.835Z,21.43
2023-03-03T05:49:09.325Z,21.59
2023-03-03T05:51:35.742Z,21.74
2023-03-03T05:54:02.077Z,21.90
2023-03-03T05:56:28.613Z,22.03
2023-03-03T05:58:55.016Z,22.19
2023-03-03T06:01:21.632Z,22.36
2023-03-03T06:03:48.129Z,22.48
2023-03-03T06:06:14.544Z,22.66
2023-03-03T06:08:40.901Z,22.84
2023-03-03T06:11:07.239Z,22.98
2023-03-03T06:13:34.197Z,23.07
2023-03-03T06:16:00.687Z,23.17
2023-03-03T06:18:27.132Z,23.16
2023-03-03T06:20:53.563Z,22.93
2023-03-03T06:23:19.916Z,23.03
2023-03-03T06:25:46.309Z,23.16
2023-03-03T06:28:12.730Z,23.24
2023-03-03T06:30:39.087Z,23.33
2023-03-03T06:33:05.441Z,23.42
2023-03-03T06:35:31.977Z,23.48
2023-03-03T06:37:58.367Z,23.60
2023-03-03T06:40:24.728Z,23.74
2023-03-03T06:42:51.167Z,23.84
2023-03-03T06:45:17.547Z,23.20
2023-03-03T06:47:43.926Z,23.14
2023-03-03T06:50:10.351Z,23.31
2023-03-03T06:52:36.769Z,23.52
2023-03-03T06:55:03.234Z,23.72
2023-03-03T06:57:29.732Z,23.90
2023-03-03T06:59:56.110Z,24.07
2023-03-03T07:02:22.566Z,24.23
2023-03-03T07:04:48.987Z,24.29
2023-03-03T07:07:15.352Z,24.24
2023-03-03T07:09:41.991Z,24.22
2023-03-03T07:12:08.413Z,24.28
2023-03-03T07:14:34.761Z,23.54
2023-03-03T07:17:01.132Z,23.39
2023-03-03T07:19:27.593Z,23.57
2023-03-03T07:21:53.939Z,23.80
2023-03-03T07:24:20.276Z,24.04
2023-03-03T07:26:46.670Z,24.24
2023-03-03T07:29:13.038Z,24.37
2023-03-03T07:31:39.433Z,24.39
2023-03-03T07:34:05.867Z,24.44
2023-03-03T07:36:32.237Z,24.54
2023-03-03T07:38:58.592Z,24.67
2023-03-03T07:41:24.988Z,24.82
2023-03-03T07:43:51.450Z,24.96
2023-03-03T07:46:17.876Z,25.01
2023-03-03T07:48:44.298Z,25.00
2023-03-03T07:51:10.654Z,25.03
2023-03-03T07:53:37.002Z,25.12
2023-03-03T07:56:03.409Z,25.23
2023-03-03T07:58:29.739Z,25.36
2023-03-03T08:00:56.189Z,25.48
2023-03-03T08:03:22.620Z,25.51
2023-03-03T08:05:48.984Z,25.50
2023-03-03T08:08:15.342Z,25.19
2023-03-03T08:10:42.547Z,22.71
2023-03-03T08:13:09.741Z,22.54
2023-03-03T08:15:36.186Z,23.00
2023-03-03T08:18:02.615Z,23.51
2023-03-03T08:20:28.962Z,23.93
2023-03-03T08:22:55.344Z,24.25
2023-03-03T08:25:21.739Z,24.45
2023-03-03T08:27:48.111Z,24.63
2023-03-03T08:30:14.526Z,24.86
2023-03-03T08:32:41.071Z,25.10
2023-03-03T08:35:07.583Z,25.30
2023-03-03T08:37:33.928Z,25.45
2023-03-03T08:40:00.329Z,25.49
2023-03-03T08:42:26.779Z,25.51
2023-03-03T08:44:53.131Z,25.66
2023-03-03T08:47:19.510Z,25.80
2023-03-03T08:49:45.970Z,25.96
2023-03-03T08:52:12.296Z,26.09
2023-03-03T08:54:38.688Z,26.10
2023-03-03T08:57:05.132Z,26.09
2023-03-03T08:59:31.477Z,26.17
2023-03-03T09:01:57.910Z,26.31
2023-03-03T09:04:24.454Z,26.44
2023-03-03T09:06:50.863Z,26.49
2023-03-03T09:09:17.274Z,26.45
2023-03-03T09:11:43.641Z,26.46
2023-03-03T09:14:09.982Z,26.53
2023-03-03T09:16:36.422Z,26.63
2023-03-03T09:19:02.792Z,26.74
2023-03-03T09:21:29.168Z,26.73
2023-03-03T09:23:55.600Z,26.68
2023-03-03T09:26:21.982Z,26.66
2023-03-03T09:28:48.332Z,26.70
2023-03-03T09:31:14.786Z,26.79
2023-03-03T09:33:41.203Z,26.89
2023-03-03T09:36:07.543Z,26.89
2023-03-03T09:38:33.970Z,26.85
2023-03-03T09:41:00.319Z,26.91
2023-03-03T09:43:26.677Z,26.98
2023-03-03T09:45:53.103Z,27.11
2023-03-03T09:48:19.440Z,27.21
2023-03-03T09:50:45.788Z,27.20
2023-03-03T09:53:12.189Z,27.20
2023-03-03T09:55:38.539Z,27.25
2023-03-03T09:58:10.764Z,27.36
2023-03-03T10:00:37.731Z,27.48
2023-03-03T10:03:04.086Z,27.50
2023-03-03T10:05:30.553Z,27.49
2023-03-03T10:07:56.961Z,27.54
2023-03-03T10:10:23.291Z,27.28
2023-03-03T10:12:49.722Z,27.14
2023-03-03T10:15:16.110Z,27.13
2023-03-03T10:17:42.437Z,27.19
2023-03-03T10:20:08.917Z,27.19
2023-03-03T10:22:35.413Z,27.15
2023-03-03T10:25:01.803Z,27.20
2023-03-03T10:27:28.179Z,27.34
2023-03-03T10:29:54.587Z,27.44
2023-03-03T10:32:21.105Z,27.43
2023-03-03T10:34:47.566Z,27.39
2023-03-03T10:37:13.991Z,27.41
2023-03-03T10:39:40.374Z,27.52
2023-03-03T10:42:06.741Z,27.61
2023-03-03T10:44:33.142Z,27.62
2023-03-03T10:46:59.600Z,27.52
2023-03-03T10:49:26.391Z,27.52
2023-03-03T10:51:52.802Z,27.57
2023-03-03T10:54:19.184Z,27.63
2023-03-03T10:56:52.951Z,27.59
2023-03-03T10:59:20.246Z,27.51
2023-03-03T11:01:46.572Z,27.54
2023-03-03T11:04:13.005Z,27.64
2023-03-03T11:06:39.543Z,27.72
2023-03-03T11:09:05.894Z,27.67
2023-03-03T11:11:32.235Z,27.61
2023-03-03T11:13:58.749Z,27.64
2023-03-03T11:16:25.103Z,27.73
2023-03-03T11:18:51.526Z,27.78
2023-03-03T11:21:18.039Z,27.42
2023-03-03T11:23:44.429Z,27.67
2023-03-03T11:26:10.809Z,27.74
2023-03-03T11:28:37.215Z,27.84
2023-03-03T11:31:03.630Z,27.91
2023-03-03T11:33:30.030Z,27.86
2023-03-03T11:35:56.504Z,27.83
2023-03-03T11:38:22.853Z,27.87
2023-03-03T11:40:49.220Z,27.97
2023-03-03T11:43:29.903Z,28.02
2023-03-03T11:46:00.605Z,27.94
2023-03-03T11:48:27.013Z,27.88
2023-03-03T11:50:53.370Z,27.94
2023-03-03T11:53:19.723Z,27.98
2023-03-03T11:55:46.138Z,28.00
2023-03-03T11:58:12.534Z,27.90
2023-03-03T12:00:38.896Z,27.83
2023-03-03T12:03:05.311Z,27.68
2023-03-03T12:05:31.684Z,27.63
2023-03-03T12:07:58.090Z,27.67
2023-03-03T12:10:24.491Z,27.66
2023-03-03T12:12:50.844Z,27.60
2023-03-03T12:15:17.202Z,27.53
2023-03-03T12:17:43.609Z,27.56
2023-03-03T12:20:10.014Z,27.65
2023-03-03T12:22:36.382Z,27.70
2023-03-03T12:25:02.809Z,27.65
2023-03-03T12:27:29.153Z,27.63
2023-03-03T12:29:55.494Z,27.66
2023-03-03T12:32:21.959Z,27.73
2023-03-03T12:34:48.369Z,27.76
2023-03-03T12:37:14.736Z,27.69
2023-03-03T12:39:41.130Z,27.65
2023-03-03T12:42:07.495Z,27.69
2023-03-03T12:44:33.863Z,27.74
2023-03-03T12:47:00.272Z,27.78
2023-03-03T12:49:26.724Z,27.72
2023-03-03T12:51:53.089Z,27.66
2023-03-03T12:54:19.499Z,27.71
2023-03-03T12:56:45.869Z,27.77
2023-03-03T12:59:12.260Z,27.75
2023-03-03T13:01:38.672Z,27.47
2023-03-03T13:04:05.119Z,27.60
2023-03-03T13:06:31.567Z,27.66
2023-03-03T13:08:58.011Z,27.73
2023-03-03T13:11:24.358Z,27.74
2023-03-03T13:13:50.721Z,27.63
2023-03-03T13:16:17.500Z,26.66
2023-03-03T13:18:43.922Z,25.83
2023-03-03T13:21:10.336Z,25.74
2023-03-03T13:23:36.898Z,25.84
2023-03-03T13:26:03.326Z,26.01
2023-03-03T13:28:29.759Z,26.18
2023-03-03T13:30:56.226Z,26.25
2023-03-03T13:33:22.612Z,26.29
2023-03-03T13:35:48.966Z,26.29
2023-03-03T13:38:15.398Z,26.23
2023-03-03T13:40:41.764Z,26.15
2023-03-03T13:43:08.157Z,26.07
2023-03-03T13:45:34.646Z,25.98
2023-03-03T13:48:01.060Z,25.91
2023-03-03T13:50:27.627Z,25.81
2023-03-03T13:52:54.058Z,25.69
2023-03-03T13:55:21.604Z,25.57
2023-03-03T13:57:48.160Z,25.43
2023-03-03T14:00:14.648Z,25.31
2023-03-03T14:02:40.998Z,25.15
2023-03-03T14:05:07.379Z,24.99
2023-03-03T14:07:33.767Z,24.84
2023-03-03T14:10:00.346Z,24.67
2023-03-03T14:12:26.762Z,24.53
2023-03-03T14:14:53.255Z,24.40
2023-03-03T14:17:22.414Z,24.17
2023-03-03T14:19:49.036Z,23.62
2023-03-03T14:22:15.397Z,23.40
2023-03-03T14:24:41.797Z,23.29
2023-03-03T14:27:08.344Z,22.64
2023-03-03T14:29:34.804Z,22.04
2023-03-03T14:32:01.346Z,22.09
2023-03-03T14:34:27.842Z,22.07
2023-03-03T14:36:54.248Z,22.02
2023-03-03T14:39:20.607Z,22.00
2023-03-03T14:41:47.023Z,21.95
2023-03-03T14:44:13.393Z,21.85
2023-03-03T14:46:39.743Z,21.77
2023-03-03T14:49:06.088Z,21.66
2023-03-03T14:51:32.539Z,21.58
2023-03-03T14:53:59.009Z,21.49
2023-03-03T14:56:25.408Z,21.39
2023-03-03T14:58:51.790Z,21.27
2023-03-03T15:01:18.153Z,21.17
2023-03-03T15:03:44.472Z,21.08
2023-03-03T15:06:10.829Z,20.94
2023-03-03T15:08:37.162Z,20.90
2023-03-03T15:11:03.574Z,20.79
2023-03-03T15:13:29.925Z,20.70
2023-03-03T15:15:56.247Z,20.61
2023-03-03T15:18:22.725Z,20.23
2023-03-03T15:20:49.085Z,20.42
2023-03-03T15:23:15.394Z,20.35
2023-03-03T15:25:43.691Z,20.29
2023-03-03T15:28:10.882Z,20.19
2023-03-03T15:30:37.214Z,20.10
2023-03-03T15:33:03.561Z,20.01
2023-03-03T15:35:30.061Z,19.92
2023-03-03T15:37:56.471Z,19.82
2023-03-03T15:40:22.799Z,19.72
2023-03-03T15:42:49.195Z,19.61
2023-03-03T15:45:15.540Z,19.52
2023-03-03T15:47:41.898Z,19.42
2023-03-03T15:50:08.289Z,19.35
2023-03-03T15:52:34.618Z,19.27
2023-03-03T15:55:00.924Z,19.21
2023-03-03T15:57:27.306Z,19.12
2023-03-03T15:59:53.635Z,19.04
2023-03-03T16:02:19.950Z,18.98
2023-03-03T16:04:46.330Z,18.78
2023-03-03T16:07:12.653Z,18.81
2023-03-03T16:09:38.988Z,18.77
2023-03-03T16:12:05.425Z,18.71
2023-03-03T16:14:31.778Z,18.49
2023-03-03T16:16:58.310Z,18.56
2023-03-03T16:19:24.708Z,18.48
2023-03-03T16:21:51.022Z,18.38
2023-03-03T16:24:17.357Z,18.33
2023-03-03T16:26:43.760Z,18.26
2023-03-03T16:29:10.083Z,18.20
2023-03-03T16:31:36.491Z,18.13
2023-03-03T16:34:02.926Z,18.04
2023-03-03T16:36:29.236Z,17.99
2023-03-03T16:38:55.564Z,17.92
2023-03-03T16:41:21.937Z,17.86
2023-03-03T16:43:48.246Z,17.78
2023-03-03T16:46:14.615Z,17.72
2023-03-03T16:48:40.991Z,17.69
2023-03-03T16:51:07.312Z,17.65
2023-03-03T16:53:33.670Z,17.57
2023-03-03T16:56:00.433Z,17.52
2023-03-03T16:58:26.845Z,17.44
2023-03-03T17:00:53.199Z,17.37
2023-03-03T17:03:19.583Z,17.29
2023-03-03T17:05:45.897Z,17.20
2023-03-03T17:08:12.229Z,16.97
2023-03-03T17:10:38.607Z,16.99
2023-03-03T17:13:04.940Z,16.99
2023-03-03T17:15:31.339Z,16.94
2023-03-03T17:17:57.797Z,16.88
2023-03-03T17:20:24.121Z,16.80
2023-03-03T17:22:50.440Z,16.74
2023-03-03T17:25:16.947Z,16.68
2023-03-03T17:27:43.278Z,16.61
2023-03-03T17:30:09.597Z,16.55
2023-03-03T17:32:36.068Z,16.50
2023-03-03T17:35:02.406Z,16.40
2023-03-03T17:37:28.763Z,16.31
2023-03-03T17:39:55.117Z,16.21
2023-03-03T17:42:21.432Z,16.18
2023-03-03T17:44:47.820Z,16.12
2023-03-03T17:47:14.191Z,15.99
2023-03-03T17:49:40.564Z,15.88
2023-03-03T17:52:06.881Z,15.88
2023-03-03T17:54:33.246Z,15.89
2023-03-03T17:56:59.572Z,15.84
2023-03-03T17:59:25.895Z,15.80
2023-03-03T18:01:52.244Z,15.50
2023-03-03T18:04:18.654Z,15.29
2023-03-03T18:06:45.010Z,15.25
2023-03-03T18:09:14.655Z,15.18
2023-03-03T18:11:41.326Z,15.39
2023-03-03T18:14:07.652Z,15.56
2023-03-03T18:16:34.117Z,15.57
2023-03-03T18:19:00.484Z,15.53
2023-03-03T18:21:26.801Z,15.48
2023-03-03T18:23:53.201Z,15.45
2023-03-03T18:26:19.682Z,15.41
2023-03-03T18:28:46.026Z,15.37
2023-03-03T18:31:12.436Z,15.33
2023-03-03T18:33:38.780Z,15.25
2023-03-03T18:36:05.131Z,15.22
2023-03-03T18:38:31.519Z,15.11
2023-03-03T18:40:57.857Z,15.05
2023-03-03T18:43:24.185Z,14.98
2023-03-03T18:45:50.691Z,14.92
2023-03-03T18:48:17.045Z,14.88
2023-03-03T18:50:43.377Z,14.79
2023-03-03T18:53:09.748Z,14.74
2023-03-03T18:55:36.189Z,14.69
2023-03-03T18:58:02.586Z,14.68
2023-03-03T19:00:28.967Z,14.62
2023-03-03T19:02:55.289Z,14.57
2023-03-03T19:05:21.665Z,14.52
2023-03-03T19:07:48.045Z,14.47
2023-03-03T19:10:14.384Z,14.40
2023-03-03T19:12:40.712Z,14.31
2023-03-03T19:15:07.081Z,14.27
2023-03-03T19:17:33.426Z,14.25
2023-03-03T19:19:59.735Z,14.23
2023-03-03T19:22:26.119Z,14.18
2023-03-03T19:24:52.445Z,14.14
2023-03-03T19:27:18.770Z,14.06
2023-03-03T19:29:45.153Z,14.02
2023-03-03T19:32:11.572Z,13.98
2023-03-03T19:34:37.965Z,13.95
2023-03-03T19:37:04.381Z,13.88
2023-03-03T19:39:30.717Z,13.83
2023-03-03T19:41:57.030Z,13.78
2023-03-03T19:44:23.387Z,13.77
2023-03-03T19:46:49.770Z,13.72
2023-03-03T19:49:16.171Z,13.65
2023-03-03T19:51:42.562Z,13.59
2023-03-03T19:54:08.889Z,13.53
2023-03-03T19:56:35.198Z,13.48
2023-03-03T19:59:01.564Z,13.41
2023-03-03T20:01:27.999Z,13.35
2023-03-03T20:03:54.371Z,13.37
2023-03-03T20:06:20.742Z,13.35
2023-03-03T20:08:47.094Z,13.33
2023-03-03T20:11:13.515Z,13.37
2023-03-03T20:13:39.901Z,13.34
2023-03-03T20:16:06.253Z,13.32
2023-03-03T20:18:32.658Z,13.28
2023-03-03T20:20:59.124Z,12.88
2023-03-03T20:23:25.494Z,13.11
2023-03-03T20:25:51.856Z,13.20
2023-03-03T20:28:18.418Z,13.10
2023-03-03T20:30:44.722Z,13.08
2023-03-03T20:33:11.087Z,13.11
2023-03-03T20:35:37.480Z,13.07
2023-03-03T20:38:03.864Z,13.02
2023-03-03T20:40:30.257Z,12.98
2023-03-03T20:42:56.611Z,12.95
2023-03-03T20:45:23.038Z,12.90
2023-03-03T20:47:49.430Z,12.83
2023-03-03T20:50:15.786Z,12.77
2023-03-03T20:52:42.095Z,12.71
2023-03-03T20:55:10.490Z,12.63
2023-03-03T20:57:37.079Z,12.64
2023-03-03T21:00:03.411Z,12.57
2023-03-03T21:02:29.754Z,12.44
2023-03-03T21:04:56.114Z,12.35
2023-03-03T21:07:22.452Z,12.37
2023-03-03T21:09:48.773Z,12.40
2023-03-03T21:12:15.140Z,12.36
2023-03-03T21:14:41.456Z,12.33
2023-03-03T21:17:07.824Z,12.29
2023-03-03T21:19:34.302Z,12.26
2023-03-03T21:22:02.118Z,12.22
2023-03-03T21:24:28.841Z,12.20
2023-03-03T21:26:55.192Z,12.17
2023-03-03T21:29:21.554Z,12.16
2023-03-03T21:31:47.949Z,12.07
2023-03-03T21:34:14.341Z,12.07
2023-03-03T21:36:40.656Z,12.05
2023-03-03T21:39:06.960Z,11.97
2023-03-03T21:41:33.318Z,11.98
2023-03-03T21:43:59.842Z,11.96
2023-03-03T21:46:26.361Z,11.92
2023-03-03T21:48:52.797Z,11.87
2023-03-03T21:51:19.118Z,11.87
2023-03-03T21:53:45.451Z,11.83
2023-03-03T21:56:11.817Z,11.79
2023-03-03T21:58:38.155Z,11.72
2023-03-03T22:01:04.619Z,11.67
2023-03-03T22:03:30.978Z,11.67
2023-03-03T22:05:57.319Z,11.64
2023-03-03T22:08:23.650Z,11.60
2023-03-03T22:10:50.000Z,11.57
2023-03-03T22:13:16.332Z,11.53
2023-03-03T22:15:42.662Z,11.51
2023-03-03T22:18:09.042Z,11.49
2023-03-03T22:20:35.368Z,11.47
2023-03-03T22:23:01.723Z,11.45
2023-03-03T22:25:28.107Z,11.41
2023-03-03T22:27:54.416Z,11.39
2023-03-03T22:30:20.732Z,11.38
2023-03-03T22:32:47.110Z,11.37
2023-03-03T22:35:13.418Z,11.36
2023-03-03T22:37:39.747Z,11.35
2023-03-03T22:40:06.447Z,11.34
2023-03-03T22:42:32.778Z,11.33
2023-03-03T22:44:59.138Z,11.31
2023-03-03T22:47:25.518Z,11.29
2023-03-03T22:49:51.892Z,11.24
2023-03-03T22:52:18.205Z,11.21
2023-03-03T22:54:44.577Z,11.18
2023-03-03T22:57:10.895Z,11.16
2023-03-03T22:59:37.211Z,11.15
2023-03-03T23:02:03.753Z,11.14
2023-03-03T23:04:30.144Z,11.10
2023-03-03T23:06:56.483Z,11.06
2023-03-03T23:09:22.838Z,11.04
2023-03-03T23:11:49.141Z,11.01
2023-03-03T23:14:15.473Z,10.99
2023-03-03T23:16:41.841Z,10.93
2023-03-03T23:19:08.220Z,10.90
2023-03-03T23:21:34.525Z,10.95
2023-03-03T23:24:01.027Z,10.91
2023-03-03T23:26:27.493Z,10.89
2023-03-03T23:28:53.812Z,10.84
2023-03-03T23:31:20.263Z,10.82
2023-03-03T23:33:46.610Z,10.70
2023-03-03T23:36:12.950Z,10.62
2023-03-03T23:38:40.307Z,10.61
2023-03-03T23:41:08.269Z,10.63
2023-03-03T23:43:34.604Z,10.55
2023-03-03T23:46:00.974Z,10.61
2023-03-03T23:48:27.307Z,10.59
2023-03-03T23:50:53.627Z,10.58
2023-03-03T23:53:20.012Z,10.55
2023-03-03T23:55:46.400Z,10.50
2023-03-03T23:58:12.749Z,10.47
